createdAt,value
2019-04-04T00:02:19.116Z,12.46
2019-04-04T00:04:52.356Z,12.46
2019-04-04T00:07:22.944Z,12.44
2019-04-04T00:09:53.897Z,12.43
2019-04-04T00:12:24.642Z,12.40
2019-04-04T00:14:55.317Z,12.44
2019-04-04T00:17:26.349Z,12.37
2019-04-04T00:19:57.034Z,12.33
2019-04-04T00:22:27.997Z,12.35
2019-04-04T00:24:58.937Z,12.31
2019-04-04T00:27:29.616Z,12.31
2019-04-04T00:30:00.303Z,12.35
2019-04-04T00:32:30.996Z,12.35
2019-04-04T00:35:01.688Z,12.35
2019-04-04T00:37:34.427Z,12.31
2019-04-04T00:40:07.245Z,12.34
2019-04-04T00:42:38.312Z,12.31
2019-04-04T00:45:09.774Z,12.24
2019-04-04T00:47:40.561Z,12.22
2019-04-04T00:50:11.397Z,12.18
2019-04-04T00:52:42.098Z,12.16
2019-04-04T00:55:13.915Z,12.16
2019-04-04T00:57:45.493Z,12.12
2019-04-04T01:00:16.315Z,12.09
2019-04-04T01:02:47.240Z,12.10
2019-04-04T01:05:18.179Z,12.06
2019-04-04T01:07:48.848Z,12.00
2019-04-04T01:10:19.811Z,11.95
2019-04-04T01:12:52.229Z,11.96
2019-04-04T01:15:22.871Z,11.87
2019-04-04T01:17:53.606Z,11.81
2019-04-04T01:20:24.278Z,11.83
2019-04-04T01:22:56.122Z,11.81
2019-04-04T01:25:28.187Z,11.74
2019-04-04T01:27:59.180Z,11.75
2019-04-04T01:30:30.245Z,11.74
2019-04-04T01:33:03.679Z,11.64
2019-04-04T01:35:34.816Z,11.61
2019-04-04T01:38:05.539Z,11.55
2019-04-04T01:40:36.218Z,11.55
2019-04-04T01:43:09.334Z,11.52
2019-04-04T01:45:39.572Z,11.49
2019-04-04T01:48:11.343Z,11.47
2019-04-04T01:50:42.660Z,11.44
2019-04-04T01:53:13.417Z,11.37
2019-04-04T01:55:44.453Z,11.37
2019-04-04T01:58:15.136Z,11.36
2019-04-04T02:00:46.599Z,11.32
2019-04-04T02:03:17.366Z,11.29
2019-04-04T02:05:49.009Z,11.32
2019-04-04T02:08:19.699Z,11.30
2019-04-04T02:10:50.372Z,11.35
2019-04-04T02:13:21.070Z,11.32
2019-04-04T02:15:52.157Z,11.28
2019-04-04T02:18:23.654Z,11.31
2019-04-04T02:20:57.598Z,11.29
2019-04-04T02:23:27.031Z,11.22
2019-04-04T02:25:57.745Z,11.22
2019-04-04T02:28:28.695Z,11.20
2019-04-04T02:30:59.815Z,11.18
2019-04-04T02:33:32.392Z,11.18
2019-04-04T02:36:03.789Z,11.16
2019-04-04T02:38:34.889Z,11.12
2019-04-04T02:41:05.950Z,11.11
2019-04-04T02:43:36.866Z,11.08
2019-04-04T02:46:11.053Z,11.07
2019-04-04T02:48:40.265Z,11.07
2019-04-04T02:51:11.272Z,11.04
2019-04-04T02:53:43.202Z,11.04
2019-04-04T02:56:13.904Z,11.03
2019-04-04T02:58:46.362Z,11.01
2019-04-04T03:01:17.245Z,10.98
2019-04-04T03:03:48.052Z,10.98
2019-04-04T03:06:18.738Z,11.00
2019-04-04T03:08:49.600Z,10.97
2019-04-04T03:11:22.172Z,10.99
2019-04-04T03:13:52.664Z,11.01
2019-04-04T03:16:23.382Z,11.00
2019-04-04T03:18:54.152Z,11.01
2019-04-04T03:21:24.902Z,11.00
2019-04-04T03:23:55.716Z,11.03
2019-04-04T03:26:26.871Z,10.98
2019-04-04T03:28:57.819Z,10.99
2019-04-04T03:31:36.379Z,10.98
2019-04-04T03:34:08.341Z,11.02
2019-04-04T03:36:34.025Z,11.03
2019-04-04T03:39:06.506Z,11.01
2019-04-04T03:41:37.188Z,11.02
2019-04-04T03:44:07.875Z,11.02
2019-04-04T03:46:39.522Z,11.00
2019-04-04T03:49:10.216Z,10.99
2019-04-04T03:51:40.891Z,10.98
2019-04-04T03:54:13.236Z,10.98
2019-04-04T03:56:44.028Z,10.98
2019-04-04T03:59:15.025Z,11.00
2019-04-04T04:01:46.804Z,10.95
2019-04-04T04:04:17.667Z,10.93
2019-04-04T04:06:48.366Z,10.93
2019-04-04T04:09:19.415Z,10.88
2019-04-04T04:11:50.379Z,10.88
2019-04-04T04:14:22.742Z,10.82
2019-04-04T04:16:53.545Z,10.76
2019-04-04T04:19:27.447Z,10.73
2019-04-04T04:21:57.650Z,10.73
2019-04-04T04:24:29.572Z,10.74
2019-04-04T04:27:00.758Z,10.56
2019-04-04T04:29:31.461Z,10.72
2019-04-04T04:32:03.086Z,10.73
2019-04-04T04:34:34.357Z,10.65
2019-04-04T04:37:05.022Z,10.59
2019-04-04T04:39:41.128Z,10.60
2019-04-04T04:42:09.655Z,10.63
2019-04-04T04:44:40.353Z,10.68
2019-04-04T04:47:11.112Z,10.73
2019-04-04T04:49:42.354Z,10.74
2019-04-04T04:52:18.562Z,10.77
2019-04-04T04:54:52.320Z,10.73
2019-04-04T04:57:29.848Z,10.76
2019-04-04T04:59:55.667Z,10.76
2019-04-04T05:02:26.600Z,10.53
2019-04-04T05:04:59.279Z,10.51
2019-04-04T05:07:29.924Z,10.60
2019-04-04T05:10:00.591Z,10.59
2019-04-04T05:12:31.294Z,10.48
2019-04-04T05:15:02.331Z,10.50
2019-04-04T05:17:32.996Z,10.44
2019-04-04T05:20:05.516Z,10.44
2019-04-04T05:22:39.667Z,10.45
2019-04-04T05:25:09.218Z,10.40
2019-04-04T05:27:40.175Z,10.39
2019-04-04T05:30:10.995Z,10.47
2019-04-04T05:32:41.651Z,10.53
2019-04-04T05:35:15.016Z,10.60
2019-04-04T05:37:45.072Z,10.59
2019-04-04T05:40:15.885Z,10.64
2019-04-04T05:42:46.821Z,10.69
2019-04-04T05:45:17.573Z,10.76
2019-04-04T05:47:48.248Z,10.77
2019-04-04T05:50:19.026Z,10.87
2019-04-04T05:52:49.986Z,11.15
2019-04-04T05:55:20.933Z,11.72
2019-04-04T05:57:51.741Z,12.26
2019-04-04T06:00:22.817Z,12.89
2019-04-04T06:02:53.509Z,13.47
2019-04-04T06:05:26.987Z,13.47
2019-04-04T06:07:56.548Z,13.69
2019-04-04T06:10:27.548Z,13.68
2019-04-04T06:12:58.579Z,13.40
2019-04-04T06:15:30.088Z,13.00
2019-04-04T06:18:02.299Z,13.09
2019-04-04T06:20:33.310Z,12.67
2019-04-04T06:23:04.006Z,12.76
2019-04-04T06:25:35.920Z,12.71
2019-04-04T06:28:06.648Z,12.56
2019-04-04T06:30:43.064Z,12.61
2019-04-04T06:33:09.962Z,12.43
2019-04-04T06:35:40.649Z,12.37
2019-04-04T06:38:11.347Z,12.47
2019-04-04T06:40:42.083Z,12.41
2019-04-04T06:43:12.788Z,12.47
2019-04-04T06:45:46.227Z,12.62
2019-04-04T06:48:16.316Z,12.79
2019-04-04T06:50:47.008Z,12.85
2019-04-04T06:53:17.684Z,12.91
2019-04-04T06:55:48.370Z,13.08
2019-04-04T06:58:19.077Z,13.06
2019-04-04T07:00:50.300Z,13.14
2019-04-04T07:03:21.079Z,13.25
2019-04-04T07:05:51.840Z,13.38
2019-04-04T07:08:22.793Z,13.33
2019-04-04T07:10:58.304Z,13.42
2019-04-04T07:13:27.995Z,13.37
2019-04-04T07:16:06.741Z,13.54
2019-04-04T07:18:30.769Z,13.62
2019-04-04T07:21:03.616Z,13.74
2019-04-04T07:23:34.335Z,13.77
2019-04-04T07:26:06.234Z,13.73
2019-04-04T07:28:36.912Z,13.84
2019-04-04T07:31:07.826Z,13.88
2019-04-04T07:33:38.532Z,13.89
2019-04-04T07:36:09.485Z,14.02
2019-04-04T07:38:40.423Z,14.13
2019-04-04T07:41:11.371Z,14.29
2019-04-04T07:43:42.356Z,14.31
2019-04-04T07:46:16.937Z,14.47
2019-04-04T07:48:45.384Z,14.47
2019-04-04T07:51:16.406Z,14.52
2019-04-04T07:53:47.064Z,14.59
2019-04-04T07:56:18.073Z,14.62
2019-04-04T07:58:48.783Z,14.74
2019-04-04T08:01:19.771Z,14.78
2019-04-04T08:03:50.714Z,14.69
2019-04-04T08:06:21.693Z,14.58
2019-04-04T08:08:52.364Z,14.76
2019-04-04T08:11:23.010Z,14.93
2019-04-04T08:13:53.683Z,15.20
2019-04-04T08:16:24.353Z,15.27
2019-04-04T08:18:55.392Z,15.41
2019-04-04T08:21:26.338Z,15.53
2019-04-04T08:23:57.001Z,15.61
2019-04-04T08:26:27.673Z,15.60
2019-04-04T08:28:58.343Z,15.71
2019-04-04T08:31:28.997Z,15.81
2019-04-04T08:33:59.779Z,16.05
2019-04-04T08:36:30.701Z,16.35
2019-04-04T08:39:01.493Z,16.44
2019-04-04T08:41:33.332Z,16.87
2019-04-04T08:44:04.036Z,17.23
2019-04-04T08:46:34.712Z,17.10
2019-04-04T08:49:05.759Z,17.03
2019-04-04T08:51:36.704Z,17.44
2019-04-04T08:54:07.794Z,17.82
2019-04-04T08:56:38.504Z,17.89
2019-04-04T08:59:09.489Z,18.23
2019-04-04T09:01:42.031Z,18.79
2019-04-04T09:04:15.953Z,19.24
2019-04-04T09:06:46.982Z,19.50
2019-04-04T09:09:18.056Z,20.13
2019-04-04T09:11:48.739Z,20.15
2019-04-04T09:14:19.719Z,20.41
2019-04-04T09:16:50.432Z,20.24
2019-04-04T09:19:21.127Z,20.63
2019-04-04T09:21:52.035Z,21.11
2019-04-04T09:24:22.734Z,21.68
2019-04-04T09:26:53.722Z,21.58
2019-04-04T09:29:24.371Z,21.93
2019-04-04T09:31:55.068Z,22.01
2019-04-04T09:34:25.994Z,22.24
2019-04-04T09:36:56.687Z,22.60
2019-04-04T09:39:27.360Z,22.66
2019-04-04T09:41:58.010Z,22.12
2019-04-04T09:44:28.674Z,22.35
2019-04-04T09:47:05.346Z,21.59
2019-04-04T09:49:32.038Z,21.02
2019-04-04T09:52:02.712Z,20.64
2019-04-04T09:54:33.395Z,21.25
2019-04-04T09:57:04.120Z,21.04
2019-04-04T09:59:35.119Z,21.36
2019-04-04T10:02:06.310Z,21.44
2019-04-04T10:04:37.358Z,22.02
2019-04-04T10:07:08.074Z,22.57
2019-04-04T10:09:39.244Z,21.42
2019-04-04T10:12:10.373Z,20.86
2019-04-04T10:14:41.064Z,21.51
2019-04-04T10:17:11.711Z,21.33
2019-04-04T10:19:42.407Z,22.22
2019-04-04T10:22:13.131Z,23.01
2019-04-04T10:24:43.870Z,23.44
2019-04-04T10:27:14.539Z,23.16
2019-04-04T10:29:45.600Z,22.64
2019-04-04T10:32:16.551Z,21.82
2019-04-04T10:34:47.581Z,21.71
2019-04-04T10:37:18.621Z,21.22
2019-04-04T10:39:49.861Z,22.07
2019-04-04T10:42:20.539Z,22.83
2019-04-04T10:44:51.588Z,22.83
2019-04-04T10:47:22.567Z,22.08
2019-04-04T10:49:53.254Z,22.02
2019-04-04T10:52:24.240Z,21.25
2019-04-04T10:54:55.304Z,21.09
2019-04-04T10:57:26.420Z,21.20
2019-04-04T10:59:57.490Z,21.87
2019-04-04T11:02:28.540Z,22.74
2019-04-04T11:04:59.265Z,22.90
2019-04-04T11:07:30.413Z,22.99
2019-04-04T11:10:01.435Z,22.00
2019-04-04T11:12:34.420Z,21.81
2019-04-04T11:15:08.187Z,21.64
2019-04-04T11:17:38.878Z,21.40
2019-04-04T11:20:09.774Z,22.12
2019-04-04T11:22:40.726Z,22.29
2019-04-04T11:25:11.395Z,22.68
2019-04-04T11:27:42.392Z,22.67
2019-04-04T11:30:13.717Z,22.41
2019-04-04T11:33:29.796Z,21.86
2019-04-04T11:36:51.070Z,21.98
2019-04-04T11:39:31.105Z,22.85
2019-04-04T11:42:02.255Z,22.38
2019-04-04T11:44:33.308Z,22.73
2019-04-04T11:47:04.092Z,23.34
2019-04-04T11:49:35.177Z,21.86
2019-04-04T11:52:06.209Z,21.46
2019-04-04T11:54:38.506Z,21.46
2019-04-04T11:57:09.216Z,21.35
2019-04-04T11:59:39.881Z,22.17
2019-04-04T12:02:10.576Z,22.14
2019-04-04T12:04:41.630Z,22.72
2019-04-04T12:07:12.658Z,23.57
2019-04-04T12:09:43.354Z,23.57
2019-04-04T12:12:14.093Z,23.80
2019-04-04T12:14:45.072Z,23.59
2019-04-04T12:17:16.085Z,23.86
2019-04-04T12:19:47.192Z,22.70
2019-04-04T12:22:17.849Z,21.84
2019-04-04T12:24:48.681Z,21.13
2019-04-04T12:27:19.417Z,20.87
2019-04-04T12:29:50.344Z,20.73
2019-04-04T12:32:21.028Z,20.67
2019-04-04T12:34:51.692Z,20.47
2019-04-04T12:37:22.704Z,20.65
2019-04-04T12:39:53.616Z,20.53
2019-04-04T12:42:27.277Z,20.56
2019-04-04T12:44:58.530Z,20.39
2019-04-04T12:47:29.275Z,20.57
2019-04-04T12:50:00.213Z,20.74
2019-04-04T12:52:31.139Z,20.97
2019-04-04T12:55:01.838Z,21.00
2019-04-04T12:57:32.816Z,21.17
2019-04-04T13:00:04.050Z,20.80
2019-04-04T13:02:34.721Z,20.54
2019-04-04T13:05:08.085Z,20.65
2019-04-04T13:07:38.752Z,20.82
2019-04-04T13:10:12.267Z,20.70
2019-04-04T13:12:43.999Z,20.78
2019-04-04T13:15:15.347Z,21.11
2019-04-04T13:17:46.051Z,21.24
2019-04-04T13:20:18.260Z,21.01
2019-04-04T13:22:49.393Z,21.06
2019-04-04T13:25:20.303Z,21.12
2019-04-04T13:27:50.988Z,20.91
2019-04-04T13:30:22.457Z,20.78
2019-04-04T13:32:53.188Z,21.01
2019-04-04T13:35:23.895Z,21.36
2019-04-04T13:37:54.657Z,21.52
2019-04-04T13:40:25.699Z,21.52
2019-04-04T13:42:56.663Z,21.76
2019-04-04T13:45:27.366Z,21.15
2019-04-04T13:47:58.389Z,21.21
2019-04-04T13:50:29.585Z,21.13
2019-04-04T13:53:00.634Z,21.19
2019-04-04T13:55:31.760Z,21.09
2019-04-04T13:58:02.703Z,21.04
2019-04-04T14:00:33.702Z,21.14
2019-04-04T14:03:04.686Z,20.99
2019-04-04T14:05:35.359Z,21.21
2019-04-04T14:08:06.374Z,21.17
2019-04-04T14:10:37.135Z,21.01
2019-04-04T14:13:07.909Z,21.02
2019-04-04T14:15:38.899Z,21.29
2019-04-04T14:18:38.066Z,21.56
2019-04-04T14:21:03.849Z,21.68
2019-04-04T14:23:30.207Z,21.54
2019-04-04T14:26:00.953Z,21.34
2019-04-04T14:28:31.892Z,21.22
2019-04-04T14:31:02.621Z,21.25
2019-04-04T14:33:34.778Z,21.30
2019-04-04T14:36:05.991Z,21.18
2019-04-04T14:38:36.658Z,21.23
2019-04-04T14:41:11.409Z,21.30
2019-04-04T14:43:40.179Z,21.46
2019-04-04T14:46:10.897Z,21.29
2019-04-04T14:48:43.008Z,21.34
2019-04-04T14:51:14.196Z,21.36
2019-04-04T14:53:44.959Z,21.50
2019-04-04T14:56:15.975Z,21.39
2019-04-04T14:58:46.913Z,21.17
2019-04-04T15:01:17.910Z,21.20
2019-04-04T15:03:48.944Z,21.27
2019-04-04T15:06:19.731Z,21.30
2019-04-04T15:08:50.797Z,21.23
2019-04-04T15:11:24.447Z,21.31
2019-04-04T15:13:54.104Z,21.40
2019-04-04T15:16:25.073Z,21.35
2019-04-04T15:18:55.731Z,21.17
2019-04-04T15:21:26.700Z,21.11
2019-04-04T15:23:57.661Z,20.92
2019-04-04T15:26:28.314Z,20.82
2019-04-04T15:28:58.980Z,20.79
2019-04-04T15:31:29.910Z,20.79
2019-04-04T15:34:00.907Z,20.82
2019-04-04T15:36:31.763Z,20.90
2019-04-04T15:39:02.767Z,21.01
2019-04-04T15:41:37.237Z,21.10
2019-04-04T15:44:08.091Z,21.06
2019-04-04T15:46:38.817Z,20.99
2019-04-04T15:49:09.483Z,21.01
2019-04-04T15:51:40.469Z,20.95
2019-04-04T15:54:11.446Z,20.97
2019-04-04T15:56:42.378Z,21.00
2019-04-04T15:59:13.312Z,21.02
2019-04-04T16:01:44.327Z,20.73
2019-04-04T16:04:14.989Z,20.62
2019-04-04T16:06:45.742Z,20.66
2019-04-04T16:09:16.430Z,20.67
2019-04-04T16:11:49.737Z,20.65
2019-04-04T16:14:19.782Z,20.52
2019-04-04T16:16:50.778Z,20.50
2019-04-04T16:19:21.435Z,20.44
2019-04-04T16:21:52.378Z,20.34
2019-04-04T16:24:23.318Z,20.36
2019-04-04T16:26:54.019Z,20.43
2019-04-04T16:29:24.746Z,20.39
2019-04-04T16:31:55.760Z,20.29
2019-04-04T16:34:26.653Z,20.13
2019-04-04T16:36:57.722Z,19.99
2019-04-04T16:39:28.646Z,19.93
2019-04-04T16:42:02.491Z,19.90
2019-04-04T16:44:32.147Z,19.87
2019-04-04T16:47:03.097Z,19.87
2019-04-04T16:49:34.053Z,19.84
2019-04-04T16:52:07.262Z,19.76
2019-04-04T16:54:37.811Z,19.67
2019-04-04T16:57:08.730Z,19.66
2019-04-04T16:59:39.777Z,19.61
2019-04-04T17:02:10.718Z,19.62
2019-04-04T17:04:41.418Z,19.57
2019-04-04T17:07:12.107Z,19.52
2019-04-04T17:09:42.944Z,19.48
2019-04-04T17:12:15.464Z,19.39
2019-04-04T17:14:46.501Z,19.36
2019-04-04T17:17:17.146Z,19.35
2019-04-04T17:19:47.886Z,19.33
2019-04-04T17:22:18.824Z,19.29
2019-04-04T17:24:49.832Z,19.22
2019-04-04T17:27:20.773Z,19.21
2019-04-04T17:29:52.633Z,19.19
2019-04-04T17:32:23.731Z,19.13
2019-04-04T17:34:54.859Z,19.06
2019-04-04T17:37:26.571Z,19.02
2019-04-04T17:39:58.016Z,18.95
2019-04-04T17:42:32.004Z,18.91
2019-04-04T17:45:02.299Z,18.87
2019-04-04T17:47:34.154Z,18.78
2019-04-04T17:50:08.526Z,18.66
2019-04-04T17:52:39.457Z,18.67
2019-04-04T17:55:11.968Z,18.58
2019-04-04T17:57:43.283Z,18.55
2019-04-04T18:00:16.453Z,18.53
2019-04-04T18:02:48.211Z,18.44
2019-04-04T18:05:19.394Z,18.38
2019-04-04T18:07:51.195Z,18.35
